createdAt,value
2023-03-06T00:00:43.894Z,999.62
2023-03-06T00:01:43.900Z,999.61
2023-03-06T00:02:43.913Z,999.59
2023-03-06T00:03:43.906Z,999.58
2023-03-06T00:04:43.876Z,999.56
2023-03-06T00:05:43.862Z,999.58
2023-03-06T00:06:43.867Z,999.56
2023-03-06T00:07:43.870Z,999.60
2023-03-06T00:08:43.805Z,999.57
2023-03-06T00:09:43.803Z,999.55
2023-03-06T00:10:43.800Z,999.56
2023-03-06T00:11:43.775Z,999.51
2023-03-06T00:12:43.782Z,999.52
2023-03-06T00:13:43.769Z,999.49
2023-03-06T00:14:43.743Z,999.45
2023-03-06T00:15:43.781Z,999.46
2023-03-06T00:16:43.733Z,999.43
2023-03-06T00:17:43.715Z,999.45
2023-03-06T00:18:43.711Z,999.43
2023-03-06T00:19:43.707Z,999.42
2023-03-06T00:20:43.695Z,999.43
2023-03-06T00:21:43.688Z,999.45
2023-03-06T00:22:43.699Z,999.41
2023-03-06T00:23:43.650Z,999.44
2023-03-06T00:24:43.652Z,999.39
2023-03-06T00:25:43.639Z,999.34
2023-03-06T00:26:43.619Z,999.36
2023-03-06T00:27:43.625Z,999.30
2023-03-06T00:28:43.606Z,999.26
2023-03-06T00:29:43.609Z,999.34
2023-03-06T00:30:43.597Z,999.31
2023-03-06T00:31:43.628Z,999.31
2023-03-06T00:32:43.559Z,999.28
2023-03-06T00:33:43.551Z,999.22
2023-03-06T00:34:43.543Z,999.16
2023-03-06T00:35:43.621Z,999.15
2023-03-06T00:36:43.521Z,999.16
2023-03-06T00:37:43.511Z,999.18
2023-03-06T00:38:43.519Z,999.17
2023-03-06T00:39:43.484Z,999.22
2023-03-06T00:40:43.502Z,999.17
2023-03-06T00:41:45.942Z,999.12
2023-03-06T00:42:43.464Z,999.11
2023-03-06T00:43:43.445Z,999.10
2023-03-06T00:44:43.427Z,999.10
2023-03-06T00:45:43.463Z,999.07
2023-03-06T00:46:43.437Z,999.05
2023-03-06T00:47:43.393Z,999.02
2023-03-06T00:48:43.388Z,999.04
2023-03-06T00:49:43.393Z,999.01
2023-03-06T00:50:43.373Z,998.99
2023-03-06T00:51:43.365Z,998.94
2023-03-06T00:52:43.372Z,998.94
2023-03-06T00:53:43.343Z,998.93
2023-03-06T00:54:43.353Z,998.95
2023-03-06T00:55:43.336Z,998.89
2023-03-06T00:56:43.300Z,998.93
2023-03-06T00:57:43.287Z,998.89
2023-03-06T00:58:43.278Z,998.87
2023-03-06T00:59:43.264Z,998.86
2023-03-06T01:00:43.344Z,998.85
2023-03-06T01:01:43.302Z,998.83
2023-03-06T01:02:43.235Z,998.76
2023-03-06T01:03:43.238Z,998.76
2023-03-06T01:04:43.242Z,998.73
2023-03-06T01:05:43.211Z,998.76
2023-03-06T01:06:43.205Z,998.75
2023-03-06T01:07:43.252Z,998.72
2023-03-06T01:08:43.170Z,998.68
2023-03-06T01:09:43.166Z,998.67
2023-03-06T01:10:43.554Z,998.67
2023-03-06T01:11:43.135Z,998.63
2023-03-06T01:12:43.123Z,998.56
2023-03-06T01:13:43.135Z,998.56
2023-03-06T01:14:43.110Z,998.53
2023-03-06T01:15:43.104Z,998.53
2023-03-06T01:16:43.164Z,998.51
2023-03-06T01:17:43.073Z,998.49
2023-03-06T01:18:43.104Z,998.47
2023-03-06T01:19:43.082Z,998.40
2023-03-06T01:20:43.037Z,998.41
2023-03-06T01:21:43.026Z,998.38
2023-03-06T01:22:43.019Z,998.34
2023-03-06T01:23:43.013Z,998.35
2023-03-06T01:24:43.044Z,998.36
2023-03-06T01:25:42.995Z,998.32
2023-03-06T01:26:43.009Z,998.29
2023-03-06T01:27:42.972Z,998.28
2023-03-06T01:28:42.989Z,998.26
2023-03-06T01:29:42.943Z,998.24
2023-03-06T01:30:43.011Z,998.17
2023-03-06T01:31:42.993Z,998.12
2023-03-06T01:32:43.014Z,998.13
2023-03-06T01:33:42.916Z,998.10
2023-03-06T01:34:42.949Z,998.12
2023-03-06T01:35:42.976Z,998.06
2023-03-06T01:36:42.938Z,998.04
2023-03-06T01:37:42.880Z,998.08
2023-03-06T01:38:42.858Z,998.05
2023-03-06T01:39:42.845Z,998.03
2023-03-06T01:40:42.843Z,997.97
2023-03-06T01:41:42.819Z,997.98
2023-03-06T01:42:42.844Z,997.92
2023-03-06T01:43:42.803Z,997.96
2023-03-06T01:44:42.797Z,997.94
2023-03-06T01:45:42.810Z,997.95
2023-03-06T01:46:42.793Z,997.93
2023-03-06T01:47:42.757Z,997.93
2023-03-06T01:48:42.781Z,997.88
2023-03-06T01:49:42.733Z,997.86
2023-03-06T01:50:42.771Z,997.81
2023-03-06T01:51:42.735Z,997.83
2023-03-06T01:52:42.705Z,997.82
2023-03-06T01:53:42.701Z,997.80
2023-03-06T01:54:42.711Z,997.81
2023-03-06T01:55:42.675Z,997.79
2023-03-06T01:56:42.671Z,997.78
2023-03-06T01:57:42.668Z,997.80
2023-03-06T01:58:42.813Z,997.71
2023-03-06T01:59:42.657Z,997.74
2023-03-06T02:00:42.616Z,997.70
2023-03-06T02:01:42.624Z,997.71
2023-03-06T02:02:42.725Z,997.70
2023-03-06T02:03:42.591Z,997.75
2023-03-06T02:04:42.623Z,997.72
2023-03-06T02:05:42.593Z,997.65
2023-03-06T02:06:42.593Z,997.66
2023-03-06T02:07:42.562Z,997.68
2023-03-06T02:08:42.543Z,997.63
2023-03-06T02:09:42.547Z,997.62
2023-03-06T02:10:42.528Z,997.66
2023-03-06T02:11:42.624Z,997.59
2023-03-06T02:12:42.503Z,997.60
2023-03-06T02:13:42.514Z,997.58
2023-03-06T02:14:42.524Z,997.57
2023-03-06T02:15:42.495Z,997.54
2023-03-06T02:16:42.516Z,997.62
2023-03-06T02:17:42.451Z,997.56
2023-03-06T02:18:42.435Z,997.48
2023-03-06T02:19:42.436Z,997.54
2023-03-06T02:20:42.438Z,997.47
2023-03-06T02:21:42.418Z,997.51
2023-03-06T02:22:42.393Z,997.52
2023-03-06T02:23:42.382Z,997.44
2023-03-06T02:24:42.374Z,997.54
2023-03-06T02:25:42.414Z,997.50
2023-03-06T02:26:42.427Z,997.47
2023-03-06T02:27:42.348Z,997.50
2023-03-06T02:28:42.374Z,997.49
2023-03-06T02:29:42.327Z,997.46
2023-03-06T02:30:42.367Z,997.44
2023-03-06T02:31:42.304Z,997.43
2023-03-06T02:32:42.290Z,997.43
2023-03-06T02:33:42.288Z,997.41
2023-03-06T02:34:42.312Z,997.43
2023-03-06T02:35:42.398Z,997.38
2023-03-06T02:36:42.310Z,997.37
2023-03-06T02:37:42.270Z,997.45
2023-03-06T02:38:43.021Z,997.39
2023-03-06T02:39:42.546Z,997.41
2023-03-06T02:40:42.279Z,997.34
2023-03-06T02:41:43.017Z,997.35
2023-03-06T02:42:42.273Z,997.36
2023-03-06T02:43:42.298Z,997.33
2023-03-06T02:44:42.253Z,997.31
2023-03-06T02:45:45.613Z,997.32
2023-03-06T02:46:42.200Z,997.25
2023-03-06T02:47:42.140Z,997.33
2023-03-06T02:48:42.150Z,997.16
2023-03-06T02:49:42.130Z,997.23
2023-03-06T02:50:42.240Z,997.20
2023-03-06T02:51:42.136Z,997.22
2023-03-06T02:52:50.046Z,997.20
2023-03-06T02:53:42.074Z,997.21
2023-03-06T02:54:42.052Z,997.30
2023-03-06T02:55:42.070Z,997.22
2023-03-06T02:56:42.039Z,997.22
2023-03-06T02:57:42.026Z,997.13
2023-03-06T02:58:42.025Z,997.14
2023-03-06T02:59:42.012Z,997.14
2023-03-06T03:00:41.997Z,997.15
2023-03-06T03:01:42.110Z,997.15
2023-03-06T03:02:41.983Z,997.09
2023-03-06T03:03:41.954Z,997.10
2023-03-06T03:04:41.960Z,997.12
2023-03-06T03:05:41.936Z,997.13
2023-03-06T03:06:41.927Z,997.12
2023-03-06T03:07:41.925Z,997.06
2023-03-06T03:08:41.935Z,997.12
2023-03-06T03:09:41.898Z,997.09
2023-03-06T03:10:41.880Z,997.04
2023-03-06T03:11:41.875Z,997.04
2023-03-06T03:12:41.872Z,997.07
2023-03-06T03:13:41.858Z,997.05
2023-03-06T03:14:41.862Z,997.02
2023-03-06T03:15:41.943Z,997.05
2023-03-06T03:16:41.830Z,997.01
2023-03-06T03:17:41.840Z,997.04
2023-03-06T03:18:41.813Z,997.02
2023-03-06T03:19:41.791Z,997.02
2023-03-06T03:20:41.784Z,997.09
2023-03-06T03:21:41.790Z,996.96
2023-03-06T03:22:41.782Z,997.00
2023-03-06T03:23:41.784Z,996.99
2023-03-06T03:24:41.786Z,997.03
2023-03-06T03:25:41.746Z,996.96
2023-03-06T03:26:41.750Z,997.06
2023-03-06T03:27:41.714Z,996.96
2023-03-06T03:28:41.698Z,996.99
2023-03-06T03:29:41.701Z,996.99
2023-03-06T03:30:41.683Z,996.98
2023-03-06T03:31:41.670Z,996.97
2023-03-06T03:32:41.702Z,997.02
2023-03-06T03:33:41.698Z,997.02
2023-03-06T03:34:41.649Z,997.00
2023-03-06T03:35:41.681Z,996.98
2023-03-06T03:36:41.643Z,996.95
2023-03-06T03:37:41.622Z,997.02
2023-03-06T03:38:41.618Z,996.99
2023-03-06T03:39:41.602Z,997.03
2023-03-06T03:40:41.600Z,997.03
2023-03-06T03:41:41.573Z,997.01
2023-03-06T03:42:41.560Z,997.03
2023-03-06T03:43:41.561Z,996.99
2023-03-06T03:44:41.542Z,996.96
2023-03-06T03:45:41.530Z,996.96
2023-03-06T03:46:41.547Z,997.01
2023-03-06T03:47:41.502Z,997.02
2023-03-06T03:48:41.493Z,997.02
2023-03-06T03:49:41.520Z,997.02
2023-03-06T03:50:41.495Z,997.02
2023-03-06T03:51:41.470Z,996.99
2023-03-06T03:52:41.458Z,997.00
2023-03-06T03:53:41.444Z,996.99
2023-03-06T03:54:41.443Z,996.98
2023-03-06T03:55:41.417Z,996.99
2023-03-06T03:56:41.406Z,996.97
2023-03-06T03:57:41.437Z,996.97
2023-03-06T03:58:41.383Z,996.93
2023-03-06T03:59:41.368Z,997.02
2023-03-06T04:00:41.365Z,996.97
2023-03-06T04:01:41.418Z,996.98
2023-03-06T04:02:41.345Z,996.94
2023-03-06T04:03:41.354Z,996.99
2023-03-06T04:04:41.386Z,996.96
2023-03-06T04:05:41.326Z,997.00
2023-03-06T04:06:41.307Z,996.97
2023-03-06T04:07:41.288Z,996.98
2023-03-06T04:08:41.278Z,997.06
2023-03-06T04:09:41.281Z,997.05
2023-03-06T04:10:41.258Z,997.05
2023-03-06T04:11:41.245Z,997.00
2023-03-06T04:12:41.243Z,997.04
2023-03-06T04:13:41.230Z,997.07
2023-03-06T04:14:41.243Z,997.07
2023-03-06T04:15:41.200Z,997.11
2023-03-06T04:16:41.207Z,997.10
2023-03-06T04:17:41.181Z,997.16
2023-03-06T04:18:41.180Z,997.13
2023-03-06T04:19:41.163Z,997.11
2023-03-06T04:20:41.168Z,997.11
2023-03-06T04:21:41.157Z,997.09
2023-03-06T04:22:41.141Z,997.16
2023-03-06T04:23:41.139Z,997.11
2023-03-06T04:24:41.110Z,997.16
2023-03-06T04:25:41.124Z,997.11
2023-03-06T04:26:41.094Z,997.11
2023-03-06T04:27:41.078Z,997.11
2023-03-06T04:28:41.066Z,997.15
2023-03-06T04:29:41.056Z,997.16
2023-03-06T04:30:41.093Z,997.17
2023-03-06T04:31:41.125Z,997.17
2023-03-06T04:32:41.133Z,997.22
2023-03-06T04:33:41.023Z,997.22
2023-03-06T04:34:41.006Z,997.19
2023-03-06T04:35:41.059Z,997.17
2023-03-06T04:36:41.013Z,997.22
2023-03-06T04:37:41.011Z,997.23
2023-03-06T04:38:40.983Z,997.19
2023-03-06T04:39:40.959Z,997.23
2023-03-06T04:40:40.945Z,997.23
2023-03-06T04:41:40.968Z,997.25
2023-03-06T04:42:40.930Z,997.20
2023-03-06T04:43:40.918Z,997.25
2023-03-06T04:44:40.915Z,997.25
2023-03-06T04:45:40.930Z,997.26
2023-03-06T04:46:40.884Z,997.25
2023-03-06T04:47:40.899Z,997.29
2023-03-06T04:48:40.864Z,997.28
2023-03-06T04:49:40.845Z,997.31
2023-03-06T04:50:40.838Z,997.24
2023-03-06T04:51:40.855Z,997.27
2023-03-06T04:52:40.826Z,997.31
2023-03-06T04:53:40.852Z,997.24
2023-03-06T04:54:40.807Z,997.30
2023-03-06T04:55:40.784Z,997.29
2023-03-06T04:56:40.777Z,997.27
2023-03-06T04:57:40.782Z,997.24
2023-03-06T04:58:40.780Z,997.24
2023-03-06T04:59:40.756Z,997.23
2023-03-06T05:00:40.799Z,997.27
2023-03-06T05:01:40.734Z,997.29
2023-03-06T05:02:40.724Z,997.26
2023-03-06T05:03:40.708Z,997.28
2023-03-06T05:04:40.712Z,997.26
2023-03-06T05:05:40.686Z,997.29
2023-03-06T05:06:40.665Z,997.29
2023-03-06T05:07:40.658Z,997.27
2023-03-06T05:08:40.669Z,997.31
2023-03-06T05:09:40.684Z,997.30
2023-03-06T05:10:40.633Z,997.29
2023-03-06T05:11:40.613Z,997.30
2023-03-06T05:12:40.612Z,997.31
2023-03-06T05:13:40.600Z,997.27
2023-03-06T05:14:40.603Z,997.32
2023-03-06T05:15:40.599Z,997.33
2023-03-06T05:16:40.615Z,997.35
2023-03-06T05:17:40.547Z,997.36
2023-03-06T05:18:40.547Z,997.36
2023-03-06T05:19:40.535Z,997.32
2023-03-06T05:20:40.533Z,997.38
2023-03-06T05:21:40.508Z,997.36
2023-03-06T05:22:40.502Z,997.40
2023-03-06T05:23:40.483Z,997.43
2023-03-06T05:24:40.481Z,997.39
2023-03-06T05:25:40.536Z,997.41
2023-03-06T05:26:40.460Z,997.42
2023-03-06T05:27:40.461Z,997.39
2023-03-06T05:28:40.429Z,997.40
2023-03-06T05:29:40.425Z,997.39
2023-03-06T05:30:40.461Z,997.40
2023-03-06T05:31:40.505Z,997.41
2023-03-06T05:32:40.466Z,997.41
2023-03-06T05:33:40.391Z,997.39
2023-03-06T05:34:40.367Z,997.37
2023-03-06T05:35:40.422Z,997.38
2023-03-06T05:36:40.370Z,997.41
2023-03-06T05:37:40.351Z,997.44
2023-03-06T05:38:40.364Z,997.42
2023-03-06T05:39:40.348Z,997.46
2023-03-06T05:40:40.308Z,997.44
2023-03-06T05:41:40.333Z,997.44
2023-03-06T05:42:40.319Z,997.48
2023-03-06T05:43:40.283Z,997.51
2023-03-06T05:44:40.274Z,997.51
2023-03-06T05:45:40.299Z,997.44
2023-03-06T05:46:40.277Z,997.44
2023-03-06T05:47:40.239Z,997.51
2023-03-06T05:48:40.230Z,997.47
2023-03-06T05:49:40.220Z,997.46
2023-03-06T05:50:40.203Z,997.48
2023-03-06T05:51:40.201Z,997.45
2023-03-06T05:52:40.224Z,997.47
2023-03-06T05:53:40.192Z,997.48
2023-03-06T05:54:40.163Z,997.49
2023-03-06T05:55:40.157Z,997.47
2023-03-06T05:56:42.688Z,997.47
2023-03-06T05:57:40.179Z,997.48
2023-03-06T05:58:40.156Z,997.47
2023-03-06T05:59:40.104Z,997.46
2023-03-06T06:00:40.107Z,997.44
2023-03-06T06:01:40.096Z,997.43
2023-03-06T06:02:40.145Z,997.45
2023-03-06T06:03:40.133Z,997.49
2023-03-06T06:04:40.078Z,997.47
2023-03-06T06:05:40.044Z,997.43
2023-03-06T06:06:40.048Z,997.48
2023-03-06T06:07:40.037Z,997.44
2023-03-06T06:08:40.018Z,997.41
2023-03-06T06:09:40.054Z,997.41
2023-03-06T06:10:39.988Z,997.45
2023-03-06T06:11:39.998Z,997.45
2023-03-06T06:12:39.976Z,997.45
2023-03-06T06:13:39.979Z,997.45
2023-03-06T06:14:39.953Z,997.44
2023-03-06T06:15:39.994Z,997.43
2023-03-06T06:16:39.923Z,997.40
2023-03-06T06:17:39.917Z,997.49
2023-03-06T06:18:41.284Z,997.45
2023-03-06T06:19:39.934Z,997.45
2023-03-06T06:20:39.908Z,997.45
2023-03-06T06:21:39.886Z,997.45
2023-03-06T06:22:39.859Z,997.49
2023-03-06T06:23:39.869Z,997.52
2023-03-06T06:24:39.841Z,997.50
2023-03-06T06:25:39.847Z,997.58
2023-03-06T06:26:39.838Z,997.54
2023-03-06T06:27:39.814Z,997.53
2023-03-06T06:28:39.814Z,997.58
2023-03-06T06:29:39.807Z,997.61
2023-03-06T06:30:39.798Z,997.57
2023-03-06T06:31:39.780Z,997.59
2023-03-06T06:32:39.883Z,997.58
2023-03-06T06:33:39.744Z,997.59
2023-03-06T06:34:39.737Z,997.54
2023-03-06T06:35:39.776Z,997.59
2023-03-06T06:36:39.758Z,997.60
2023-03-06T06:37:39.720Z,997.61
2023-03-06T06:38:39.714Z,997.62
2023-03-06T06:39:39.683Z,997.63
2023-03-06T06:40:39.683Z,997.62
2023-03-06T06:41:55.509Z,997.59
2023-03-06T06:42:40.698Z,997.58
2023-03-06T06:43:39.650Z,997.64
2023-03-06T06:44:39.668Z,997.63
2023-03-06T06:45:39.640Z,997.63
2023-03-06T06:47:20.953Z,997.64
2023-03-06T06:47:40.628Z,997.68
2023-03-06T06:48:39.601Z,997.66
2023-03-06T06:49:39.589Z,997.66
2023-03-06T06:50:39.572Z,997.67
2023-03-06T06:51:39.573Z,997.65
2023-03-06T06:52:39.602Z,997.69
2023-03-06T06:53:39.552Z,997.72
2023-03-06T06:54:39.524Z,997.64
2023-03-06T06:55:39.514Z,997.64
2023-03-06T06:56:39.508Z,997.65
2023-03-06T06:57:39.510Z,997.65
2023-03-06T06:58:39.500Z,997.63
2023-03-06T06:59:39.498Z,997.66
2023-03-06T07:00:39.458Z,997.70
2023-03-06T07:01:39.568Z,997.63
2023-03-06T07:02:39.442Z,997.69
2023-03-06T07:03:39.478Z,997.65
2023-03-06T07:04:42.459Z,997.65
2023-03-06T07:05:40.417Z,997.63
2023-03-06T07:06:39.406Z,997.64
2023-03-06T07:07:39.392Z,997.64
2023-03-06T07:08:39.418Z,997.65
2023-03-06T07:09:39.392Z,997.68
2023-03-06T07:10:39.510Z,997.66
2023-03-06T07:11:39.374Z,997.67
2023-03-06T07:12:39.335Z,997.66
2023-03-06T07:13:39.331Z,997.65
2023-03-06T07:14:39.322Z,997.67
2023-03-06T07:15:39.374Z,997.65
2023-03-06T07:16:39.302Z,997.64
2023-03-06T07:17:39.306Z,997.71
2023-03-06T07:18:39.282Z,997.68
2023-03-06T07:19:39.644Z,997.66
2023-03-06T07:20:39.251Z,997.67
2023-03-06T07:21:39.272Z,997.65
2023-03-06T07:22:50.376Z,997.71
2023-03-06T07:23:40.231Z,997.69
2023-03-06T07:24:39.222Z,997.74
2023-03-06T07:25:39.208Z,997.74
2023-03-06T07:26:39.207Z,997.71
2023-03-06T07:27:39.247Z,997.71
2023-03-06T07:28:51.566Z,997.69
2023-03-06T07:29:40.164Z,997.69
2023-03-06T07:30:39.177Z,997.74
2023-03-06T07:31:39.184Z,997.75
2023-03-06T07:32:39.445Z,997.73
2023-03-06T07:33:39.132Z,997.75
2023-03-06T07:34:39.119Z,997.75
2023-03-06T07:35:39.224Z,997.73
2023-03-06T07:36:39.131Z,997.73
2023-03-06T07:37:39.149Z,997.74
2023-03-06T07:38:39.071Z,997.75
2023-03-06T07:39:39.057Z,997.75
2023-03-06T07:40:39.054Z,997.78
2023-03-06T07:41:39.039Z,997.72
2023-03-06T07:42:39.027Z,997.71
2023-03-06T07:43:39.031Z,997.67
2023-03-06T07:44:38.999Z,997.73
2023-03-06T07:45:38.989Z,997.73
2023-03-06T07:46:39.043Z,997.72
2023-03-06T07:47:38.967Z,997.73
2023-03-06T07:48:38.986Z,997.70
2023-03-06T07:49:38.976Z,997.74
2023-03-06T07:50:38.956Z,997.70
2023-03-06T07:51:38.934Z,997.69
2023-03-06T07:52:38.921Z,997.69
2023-03-06T07:53:38.923Z,997.67
2023-03-06T07:54:38.906Z,997.68
2023-03-06T07:55:38.901Z,997.70
2023-03-06T07:56:38.884Z,997.67
2023-03-06T07:57:38.874Z,997.64
2023-03-06T07:58:38.881Z,997.69
2023-03-06T07:59:38.843Z,997.66
2023-03-06T08:00:38.846Z,997.66
2023-03-06T08:01:38.816Z,997.67
2023-03-06T08:02:38.818Z,997.68
2023-03-06T08:03:38.856Z,997.70
2023-03-06T08:04:38.808Z,997.73
2023-03-06T08:05:38.807Z,997.73
2023-03-06T08:06:38.772Z,997.70
2023-03-06T08:07:38.768Z,997.68
2023-03-06T08:08:38.748Z,997.70
2023-03-06T08:09:38.750Z,997.68
2023-03-06T08:10:38.734Z,997.72
2023-03-06T08:11:38.731Z,997.75
2023-03-06T08:12:38.717Z,997.75
2023-03-06T08:13:38.734Z,997.78
2023-03-06T08:14:38.685Z,997.82
2023-03-06T08:15:38.695Z,997.78
2023-03-06T08:16:38.716Z,997.85
2023-03-06T08:17:38.656Z,997.81
2023-03-06T08:18:38.649Z,997.76
2023-03-06T08:19:38.675Z,997.75
2023-03-06T08:20:38.611Z,997.67
2023-03-06T08:21:38.884Z,997.70
2023-03-06T08:22:38.615Z,997.69
2023-03-06T08:23:38.762Z,997.71
2023-03-06T08:24:38.574Z,997.69
2023-03-06T08:25:38.858Z,997.70
2023-03-06T08:26:38.579Z,997.70
2023-03-06T08:27:38.548Z,997.70
2023-03-06T08:28:38.529Z,997.71
2023-03-06T08:29:38.559Z,997.73
2023-03-06T08:30:38.500Z,997.77
2023-03-06T08:31:38.645Z,997.73
2023-03-06T08:32:38.606Z,997.77
2023-03-06T08:33:38.475Z,997.75
2023-03-06T08:34:38.479Z,997.78
2023-03-06T08:35:38.466Z,997.76
2023-03-06T08:36:38.467Z,997.75
2023-03-06T08:37:38.530Z,997.75
2023-03-06T08:38:38.423Z,997.77
2023-03-06T08:39:38.410Z,997.76
2023-03-06T08:40:38.390Z,997.79
2023-03-06T08:41:38.383Z,997.79
2023-03-06T08:42:38.391Z,997.78
2023-03-06T08:43:38.391Z,997.79
2023-03-06T08:44:38.349Z,997.80
2023-03-06T08:45:38.382Z,997.80
2023-03-06T08:46:38.330Z,997.87
2023-03-06T08:47:38.417Z,997.88
2023-03-06T08:48:38.329Z,997.88
2023-03-06T08:49:38.301Z,997.90
2023-03-06T08:50:38.288Z,997.96
2023-03-06T08:51:38.279Z,997.95
2023-03-06T08:52:38.280Z,997.90
2023-03-06T08:53:43.588Z,997.91
2023-03-06T08:54:39.267Z,997.86
2023-03-06T08:55:38.232Z,997.95
2023-03-06T08:56:38.300Z,997.91
2023-03-06T08:57:38.205Z,997.92
2023-03-06T08:58:38.199Z,997.93
2023-03-06T08:59:38.223Z,997.92
2023-03-06T09:00:38.231Z,997.93
2023-03-06T09:01:38.306Z,997.93
2023-03-06T09:02:38.334Z,997.98
2023-03-06T09:03:38.144Z,997.95
2023-03-06T09:04:38.156Z,997.97
2023-03-06T09:05:38.126Z,997.95
2023-03-06T09:06:38.120Z,997.98
2023-03-06T09:07:38.110Z,997.94
2023-03-06T09:08:38.088Z,997.96
2023-03-06T09:09:38.138Z,997.96
2023-03-06T09:10:38.115Z,997.92
2023-03-06T09:11:38.064Z,997.94
2023-03-06T09:12:49.452Z,997.92
2023-03-06T09:13:39.045Z,997.94
2023-03-06T09:14:38.061Z,997.95
2023-03-06T09:15:38.080Z,997.90
2023-03-06T09:16:38.061Z,997.88
2023-03-06T09:17:38.068Z,997.91
2023-03-06T09:18:38.008Z,997.92
2023-03-06T09:19:37.979Z,997.98
2023-03-06T09:20:37.975Z,997.97
2023-03-06T09:21:37.952Z,997.99
2023-03-06T09:22:37.940Z,998.01
2023-03-06T09:23:37.931Z,997.98
2023-03-06T09:24:37.939Z,997.96
2023-03-06T09:25:37.946Z,998.04
2023-03-06T09:26:46.189Z,997.99
2023-03-06T09:27:38.895Z,998.04
2023-03-06T09:28:37.893Z,998.04
2023-03-06T09:29:37.864Z,998.00
2023-03-06T09:30:37.920Z,998.02
2023-03-06T09:31:37.866Z,998.02
2023-03-06T09:32:37.940Z,998.02
2023-03-06T09:33:37.833Z,998.02
2023-03-06T09:34:37.832Z,998.04
2023-03-06T09:35:37.837Z,998.03
2023-03-06T09:36:53.342Z,998.05
2023-03-06T09:37:39.130Z,998.05
2023-03-06T09:38:37.782Z,998.05
2023-03-06T09:39:37.768Z,998.05
2023-03-06T09:40:37.753Z,998.02
2023-03-06T09:41:37.786Z,998.05
2023-03-06T09:42:37.730Z,998.01
2023-03-06T09:43:37.729Z,998.09
2023-03-06T09:44:37.709Z,998.12
2023-03-06T09:45:37.707Z,998.04
2023-03-06T09:46:37.682Z,998.06
2023-03-06T09:47:37.702Z,998.02
2023-03-06T09:48:37.661Z,998.07
2023-03-06T09:49:37.683Z,998.02
2023-03-06T09:50:37.651Z,997.98
2023-03-06T09:51:37.634Z,998.01
2023-03-06T09:52:38.003Z,997.99
2023-03-06T09:53:37.610Z,998.01
2023-03-06T09:54:37.597Z,998.00
2023-03-06T09:55:37.591Z,997.96
2023-03-06T09:56:37.573Z,997.96
2023-03-06T09:57:37.614Z,997.94
2023-03-06T09:58:37.547Z,997.96
2023-03-06T09:59:37.537Z,997.98
2023-03-06T10:00:37.549Z,998.03
2023-03-06T10:01:37.524Z,998.05
2023-03-06T10:02:37.632Z,998.05
2023-03-06T10:03:37.513Z,998.02
2023-03-06T10:04:37.554Z,998.03
2023-03-06T10:05:37.475Z,998.07
2023-03-06T10:06:37.465Z,998.05
2023-03-06T10:07:37.488Z,998.06
2023-03-06T10:08:37.472Z,998.10
2023-03-06T10:09:37.425Z,998.10
2023-03-06T10:10:37.442Z,998.11
2023-03-06T10:11:37.416Z,998.07
2023-03-06T10:12:37.547Z,998.12
2023-03-06T10:13:37.792Z,998.11
2023-03-06T10:14:37.670Z,998.09
2023-03-06T10:15:37.938Z,998.11
2023-03-06T10:16:37.435Z,998.10
2023-03-06T10:17:37.338Z,998.07
2023-03-06T10:18:37.360Z,998.08
2023-03-06T10:19:37.332Z,998.09
2023-03-06T10:20:37.344Z,998.06
2023-03-06T10:21:37.346Z,998.12
2023-03-06T10:22:37.291Z,998.09
2023-03-06T10:23:37.290Z,998.08
2023-03-06T10:24:37.269Z,998.14
2023-03-06T10:25:37.286Z,998.16
2023-03-06T10:26:37.311Z,998.13
2023-03-06T10:27:37.258Z,998.10
2023-03-06T10:28:37.233Z,998.12
2023-03-06T10:29:38.528Z,998.09
2023-03-06T10:30:37.203Z,998.10
2023-03-06T10:31:37.204Z,998.07
2023-03-06T10:32:48.380Z,998.06
2023-03-06T10:33:38.186Z,998.11
2023-03-06T10:34:37.165Z,998.11
2023-03-06T10:35:37.185Z,998.11
2023-03-06T10:36:37.155Z,998.04
2023-03-06T10:37:37.135Z,998.09
2023-03-06T10:38:37.154Z,998.11
2023-03-06T10:39:37.132Z,998.13
2023-03-06T10:40:37.105Z,998.12
2023-03-06T10:41:37.091Z,998.11
2023-03-06T10:42:37.079Z,998.09
2023-03-06T10:43:37.093Z,998.05
2023-03-06T10:44:37.056Z,998.04
2023-03-06T10:45:48.653Z,998.03
2023-03-06T10:46:38.080Z,998.08
2023-03-06T10:47:37.115Z,998.08
2023-03-06T10:48:37.070Z,998.10
2023-03-06T10:49:37.003Z,998.02
2023-03-06T10:50:36.991Z,998.05
2023-03-06T10:51:37.069Z,998.06
2023-03-06T10:52:36.979Z,998.05
2023-03-06T10:53:36.991Z,998.00
2023-03-06T10:54:36.952Z,998.05
2023-03-06T10:55:36.949Z,998.03
2023-03-06T10:56:36.931Z,998.01
2023-03-06T10:57:36.909Z,998.04
2023-03-06T10:58:36.902Z,998.02
2023-03-06T10:59:36.907Z,998.04
2023-03-06T11:00:36.887Z,998.07
2023-03-06T11:01:36.958Z,998.06
2023-03-06T11:02:36.871Z,998.01
2023-03-06T11:03:36.855Z,998.02
2023-03-06T11:04:36.887Z,998.07
2023-03-06T11:05:36.830Z,998.03
2023-03-06T11:06:36.834Z,998.01
2023-03-06T11:07:36.812Z,998.02
2023-03-06T11:08:36.803Z,997.98
2023-03-06T11:09:36.795Z,998.00
2023-03-06T11:10:36.784Z,998.03
2023-03-06T11:11:38.140Z,998.02
2023-03-06T11:12:36.760Z,998.02
2023-03-06T11:13:36.751Z,998.00
2023-03-06T11:14:36.748Z,998.01
2023-03-06T11:15:36.746Z,997.97
2023-03-06T11:16:36.749Z,997.98
2023-03-06T11:17:36.736Z,998.01
2023-03-06T11:18:36.691Z,997.96
2023-03-06T11:19:36.677Z,997.96
2023-03-06T11:20:50.437Z,998.01
2023-03-06T11:21:37.681Z,998.03
2023-03-06T11:22:36.650Z,997.99
2023-03-06T11:23:36.640Z,998.00
2023-03-06T11:24:36.627Z,998.00
2023-03-06T11:25:36.611Z,997.96
2023-03-06T11:26:36.732Z,997.94
2023-03-06T11:27:36.609Z,997.96
2023-03-06T11:28:36.576Z,997.92
2023-03-06T11:29:38.692Z,997.92
2023-03-06T11:30:36.555Z,997.93
2023-03-06T11:31:36.576Z,997.91
2023-03-06T11:32:36.656Z,997.95
2023-03-06T11:33:36.597Z,997.90
2023-03-06T11:34:36.544Z,997.90
2023-03-06T11:35:36.515Z,997.89
2023-03-06T11:36:36.495Z,997.89
2023-03-06T11:37:36.511Z,997.87
2023-03-06T11:38:36.476Z,997.88
2023-03-06T11:39:36.466Z,997.89
2023-03-06T11:40:36.459Z,997.85
2023-03-06T11:41:36.441Z,997.88
2023-03-06T11:42:36.427Z,997.89
2023-03-06T11:43:36.443Z,997.89
2023-03-06T11:44:36.429Z,997.91
2023-03-06T11:45:36.419Z,997.91
2023-03-06T11:46:36.437Z,997.90
2023-03-06T11:47:36.384Z,997.83
2023-03-06T11:48:36.383Z,997.86
2023-03-06T11:49:36.385Z,997.79
2023-03-06T11:50:36.394Z,997.81
2023-03-06T11:51:36.352Z,997.81
2023-03-06T11:52:36.323Z,997.85
2023-03-06T11:53:36.365Z,997.80
2023-03-06T11:54:36.314Z,997.82
2023-03-06T11:55:36.299Z,997.83
2023-03-06T11:56:36.310Z,997.77
2023-03-06T11:57:36.281Z,997.76
2023-03-06T11:58:36.268Z,997.79
2023-03-06T11:59:36.288Z,997.78
2023-03-06T12:00:36.241Z,997.79
2023-03-06T12:01:36.282Z,997.83
2023-03-06T12:02:36.232Z,997.78
2023-03-06T12:03:36.214Z,997.72
2023-03-06T12:04:36.220Z,997.73
2023-03-06T12:05:36.308Z,997.78
2023-03-06T12:06:36.178Z,997.72
2023-03-06T12:07:36.175Z,997.76
2023-03-06T12:08:36.164Z,997.78
2023-03-06T12:09:36.180Z,997.76
2023-03-06T12:10:36.196Z,997.72
2023-03-06T12:11:36.165Z,997.73
2023-03-06T12:12:36.128Z,997.72
2023-03-06T12:13:36.116Z,997.71
2023-03-06T12:14:36.118Z,997.64
2023-03-06T12:15:36.127Z,997.64
2023-03-06T12:16:36.138Z,997.61
2023-03-06T12:17:36.089Z,997.65
2023-03-06T12:18:36.115Z,997.65
2023-03-06T12:19:36.058Z,997.66
2023-03-06T12:20:36.058Z,997.67
2023-03-06T12:21:36.037Z,997.66
2023-03-06T12:22:36.028Z,997.67
2023-03-06T12:23:36.010Z,997.61
2023-03-06T12:24:35.996Z,997.65
2023-03-06T12:25:35.992Z,997.68
2023-03-06T12:26:35.988Z,997.64
2023-03-06T12:27:35.962Z,997.60
2023-03-06T12:28:35.958Z,997.61